Latest Weather Observations for Nowra

IDN60801

Issued at 3:32 pm EST Saturday 1 August 2015 (issued every 30 minutes, with the page automatically refreshed every 10 minutes)

About weather observations | Map of weather stations | Latest weather observations for NSW | Other Formats
Station Details ID: 068072 Name: NOWRA RAN AIR STATION AWS Lat: -34.95 Lon: 150.54 Height: 109.0 m
Data from the previous 72 hours. | See also: Recent months at Nowra
Date/Time
EST
Temp
°C
App
Temp
°C
Dew
Point
Rel
Hum
%
Delta-T
°C
Wind Press
QNH
hPa
Press
MSL
hPa
Rain
since 9 am
mm
Dir
 
Spd
km/h
Gust
km/h
Spd
kts
Gust
kts
01/03:23pm 19.7 10.5 1.2 29 8.4 WNW 39 48 21 26 1013.1 - 0.0
01/03:00pm 20.4 15.2 2.7 31 8.3 WNW 19 30 10 16 1013.0 1013.1 0.0
01/02:30pm 20.0 15.7 3.3 33 7.9 WNW 15 26 8 14 1013.1 - 0.0
01/02:00pm 18.8 14.5 3.0 35 7.4 NNW 15 22 8 12 1013.0 - 0.0
01/01:30pm 18.9 13.1 2.3 33 7.6 NNW 22 35 12 19 1012.9 - 0.0
01/01:00pm 18.8 12.9 3.8 37 7.1 N 24 32 13 17 1012.8 - 0.0
01/12:30pm 18.6 13.3 4.8 40 6.7 NNW 22 33 12 18 1013.4 - 0.0
01/12:00pm 18.6 13.8 4.4 39 6.8 NNW 19 28 10 15 1014.0 1014.0 0.0
01/11:30am 18.9 14.5 5.0 40 6.8 N 17 26 9 14 1014.3 - 0.0
01/11:00am 18.1 14.2 5.3 43 6.2 N 15 20 8 11 1015.1 - 0.0
01/10:00am 16.7 12.2 4.4 44 5.8 NNW 17 26 9 14 1016.1 - 0.0
01/09:00am 15.3 9.8 4.1 47 5.2 NW 22 30 12 16 1016.3 1016.3 0.0
01/08:30am 14.3 8.3 3.5 48 4.9 NW 24 33 13 18 1016.6 - 0.0
01/08:00am 13.8 7.5 3.6 50 4.6 NW 26 39 14 21 1016.6 - 0.0
01/07:30am 13.2 8.0 3.8 53 4.3 WNW 20 32 11 17 1016.1 - 0.0
01/07:00am 13.1 8.0 4.3 55 4.0 NW 20 33 11 18 1015.6 - 0.0
01/06:30am 12.9 8.0 4.3 56 3.9 NW 19 28 10 15 1015.5 - 0.0
01/05:30am 11.6 7.6 4.8 63 3.1 NNW 15 22 8 12 1015.1 - 0.0
01/05:00am 11.4 6.4 4.8 64 3.0 NNW 20 26 11 14 1015.1 - 0.0
01/04:30am 10.8 5.8 4.7 66 2.8 NNW 20 28 11 15 1015.3 - 0.0
01/04:00am 10.3 5.4 4.9 69 2.5 NNW 20 28 11 15 1015.9 - 0.0
01/03:30am 9.6 6.0 5.2 74 2.0 NNW 13 20 7 11 1016.7 - 0.0
01/03:00am 8.4 5.1 4.6 77 1.7 N 11 15 6 8 1016.7 1016.8 0.0
01/02:30am 7.9 4.6 4.7 80 1.4 NNW 11 15 6 8 1017.5 - 0.0
01/02:00am 7.1 3.7 4.1 81 1.3 NW 11 13 6 7 1018.0 - 0.0
01/01:30am 7.8 3.3 4.4 79 1.5 NW 17 19 9 10 1018.5 - 0.0
01/01:00am 7.7 3.3 4.8 82 1.3 NW 17 20 9 11 1018.5 - 0.0
01/12:30am 6.9 3.7 4.9 87 0.9 NNW 11 15 6 8 1018.8 - 0.0
 
Date/Time
EST
Temp
°C
App
Temp
°C
Dew
Point
Rel
Hum
%
Delta-T
°C
Wind Press
QNH
hPa
Press
MSL
hPa
Rain
since 9 am
mm
Dir
 
Spd
km/h
Gust
km/h
Spd
kts
Gust
kts
31/11:30pm 7.4 4.0 5.9 90 0.7 WNW 13 15 7 8 1020.0 - 0.0
31/11:00pm 7.6 4.8 6.9 95 0.3 NNW 11 13 6 7 1020.2 - 0.0
31/10:30pm 6.8 3.9 6.5 98 0.1 NW 11 15 6 8 1020.8 - 0.0
31/10:00pm 7.6 4.5 7.3 98 0.1 WNW 13 15 7 8 1020.8 - 0.0
31/09:30pm 7.7 4.7 7.6 99 0.0 NW 13 17 7 9 1020.8 - 0.0
31/09:00pm 7.9 4.9 7.8 99 0.0 WNW 13 15 7 8 1020.6 1020.7 0.0
31/08:30pm 6.1 4.3 5.5 96 0.3 WNW 4 7 2 4 1020.4 - 0.0
31/08:00pm 6.8 4.6 6.4 97 0.2 W 7 11 4 6 1020.2 - 0.0
31/07:00pm 6.7 4.4 5.8 94 0.4 W 7 11 4 6 1020.3 - 0.0
31/06:30pm 7.2 5.0 6.0 92 0.5 WSW 7 9 4 5 1020.2 - 0.0
31/05:30pm 11.2 9.0 6.1 71 2.4 E 7 7 4 4 1020.0 - 0.0
31/05:00pm 12.6 9.4 6.9 68 2.8 ENE 13 13 7 7 1019.7 - 0.0
31/04:30pm 14.1 11.5 7.6 65 3.2 ESE 11 13 6 7 1019.3 - 0.0
31/04:00pm 14.9 12.3 7.7 62 3.6 ESE 11 15 6 8 1019.4 - 0.0
31/03:30pm 15.2 11.3 7.2 59 4.0 SE 17 20 9 11 1019.2 - 0.0
31/03:00pm 15.3 10.7 6.6 56 4.2 SE 20 22 11 12 1019.1 1019.2 0.0
31/02:30pm 16.0 11.5 7.0 55 4.5 SE 20 26 11 14 1018.7 - 0.0
31/02:00pm 16.3 10.9 6.4 52 4.9 SSE 24 30 13 16 1018.9 - 0.0
31/01:30pm 18.1 14.4 4.3 40 6.6 W 13 19 7 10 1018.9 - 0.0
31/01:00pm 18.3 14.7 5.2 42 6.4 NNW 13 22 7 12 1019.0 - 0.0
31/12:30pm 17.6 14.4 5.2 44 6.0 N 11 17 6 9 1019.5 - 0.0
31/12:00pm 17.1 14.2 4.4 43 6.0 NW 9 13 5 7 1020.1 1020.2 0.0
31/11:30am 16.1 12.7 4.2 45 5.6 NW 11 17 6 9 1020.5 - 0.0
31/11:00am 15.6 11.5 4.6 48 5.2 NNW 15 22 8 12 1020.7 - 0.0
31/10:30am 15.1 10.2 3.9 47 5.2 WNW 19 26 10 14 1020.8 - 0.0
31/10:00am 14.9 10.0 4.3 49 4.9 WNW 19 26 10 14 1020.8 - 0.0
31/09:30am 13.8 8.9 4.1 52 4.5 WNW 19 26 10 14 1020.6 - 0.0
31/09:00am 13.3 8.3 3.7 52 4.3 W 19 26 10 14 1020.8 1020.9 0.0
31/08:30am 12.5 6.6 3.7 55 4.0 W 24 32 13 17 1020.4 - 0.0
31/08:00am 11.4 7.6 3.7 59 3.4 SE 13 17 7 9 1020.1 - 0.0
31/07:30am 10.6 8.8 3.4 61 3.2 ESE 2 11 1 6 1019.6 - 0.0
31/07:00am 10.6 7.4 2.9 59 3.3 W 9 13 5 7 1019.1 - 0.0
31/06:30am 10.6 3.8 2.9 59 3.3 WNW 28 35 15 19 1018.5 - 0.0
31/06:00am 10.1 4.4 2.9 61 3.1 NW 22 - 12 - - 1018.6 -
31/05:30am 11.0 4.9 2.8 57 3.6 NW 24 28 13 15 1018.6 - 0.0
31/05:00am 10.3 6.3 3.1 61 3.1 WNW 13 17 7 9 1018.8 - 0.0
31/04:30am 9.2 6.9 2.8 64 2.7 W 4 7 2 4 1018.7 - 0.0
31/04:00am 10.3 6.3 2.7 59 3.3 WNW 13 17 7 9 1018.1 - 0.0
31/03:30am 11.6 6.5 2.9 55 3.8 WNW 19 24 10 13 1017.9 - 0.0
31/03:00am 12.0 7.2 2.7 53 4.1 NW 17 24 9 13 1017.7 1017.8 0.0
31/02:30am 12.2 7.0 2.6 52 4.2 WNW 19 26 10 14 1017.7 - 0.0
31/02:00am 12.5 5.3 2.9 52 4.2 NW 30 43 16 23 1017.3 - 0.0
31/01:30am 12.9 5.3 2.7 50 4.5 WNW 32 46 17 25 1017.1 - 0.0
31/01:00am 13.1 4.5 2.4 48 4.7 WNW 37 56 20 30 1017.1 - 0.0
31/12:50am 13.2 4.6 2.4 48 4.8 NW 37 56 20 30 1017.0 - 0.0
31/12:30am 13.0 5.1 2.5 49 4.6 WNW 33 46 18 25 1017.1 - 0.0
31/12:00am 13.1 3.7 2.6 49 4.6 WNW 41 57 22 31 1017.2 1017.3 0.0
 
Date/Time
EST
Temp
°C
App
Temp
°C
Dew
Point
Rel
Hum
%
Delta-T
°C
Wind Press
QNH
hPa
Press
MSL
hPa
Rain
since 9 am
mm
Dir
 
Spd
km/h
Gust
km/h
Spd
kts
Gust
kts
30/11:30pm 13.1 3.4 2.6 49 4.6 WNW 43 70 23 38 1017.2 - 0.0
30/11:23pm 13.2 4.9 2.4 48 4.8 WNW 35 67 19 36 1017.3 - 0.0
30/11:04pm 13.2 6.2 2.1 47 4.9 WNW 28 48 15 26 1017.4 - 0.0
30/11:00pm 13.2 6.2 2.1 47 4.9 WNW 28 44 15 24 1017.6 - 0.0
30/10:30pm 13.6 6.1 0.9 42 5.4 WNW 30 48 16 26 1017.3 - 0.0
30/10:00pm 13.9 6.2 0.2 39 5.8 WNW 30 48 16 26 1016.8 - 0.0
30/09:58pm 13.8 6.6 0.5 40 5.6 WNW 28 48 15 26 1016.9 - 0.0
30/09:30pm 13.6 8.4 -0.1 39 5.7 NW 17 28 9 15 1016.7 - 0.0
30/09:00pm 13.8 6.5 0.1 39 5.8 WNW 28 54 15 29 1016.1 1016.1 0.0
30/08:32pm 13.9 6.6 0.2 39 5.8 NW 28 52 15 28 1015.4 - 0.0
30/08:30pm 13.8 6.9 0.1 39 5.8 NW 26 39 14 21 1015.4 - 0.0
30/08:02pm 13.8 5.9 0.8 41 5.6 NW 32 50 17 27 1016.0 - 0.0
30/08:00pm 13.8 5.3 1.1 42 5.5 NW 35 50 19 27 1016.1 - 0.0
30/07:30pm 13.9 6.4 0.9 41 5.6 WNW 30 48 16 26 1016.5 - 0.0
30/07:00pm 14.0 4.3 0.3 39 5.8 WNW 41 63 22 34 1017.0 - 0.0
30/06:30pm 14.2 3.9 0.5 39 5.8 WNW 44 76 24 41 1016.8 - 0.0
30/06:00pm 14.3 5.0 0.5 39 5.9 WNW 39 59 21 32 1017.2 1017.3 0.0
30/05:40pm 14.4 6.2 0.3 38 6.0 WNW 33 52 18 28 1017.3 - 0.0
30/05:30pm 14.1 7.2 0.4 39 5.8 WNW 26 39 14 21 1017.1 - 0.0
30/05:00pm 14.6 8.4 -0.3 36 6.3 NW 22 33 12 18 1017.1 - 0.0
30/04:30pm 14.9 9.0 -0.8 34 6.5 NW 20 32 11 17 1017.2 - 0.0
30/04:00pm 15.7 9.0 -1.4 31 7.1 NW 24 33 13 18 1017.3 - 0.0
30/03:30pm 16.6 11.6 -1.0 30 7.4 NW 15 20 8 11 1017.8 - 0.0
30/03:00pm 16.8 11.4 -1.3 29 7.6 NW 17 26 9 14 1018.2 1018.3 0.0
30/02:30pm 17.4 9.8 -1.8 27 8.0 NW 28 37 15 20 1018.4 - 0.0
30/02:00pm 18.0 11.3 -1.3 27 8.2 NW 24 43 13 23 1018.8 - 0.0
30/01:30pm 17.5 10.1 -0.7 29 7.8 NW 28 37 15 20 1019.3 - 0.0
30/01:00pm 17.3 10.3 -0.4 30 7.6 NW 26 43 14 23 1020.0 - 0.0
30/12:33pm 17.0 9.8 0.6 33 7.2 NW 28 48 15 26 1020.4 - 0.0
30/12:30pm 17.2 10.5 1.6 35 7.0 NW 26 37 14 20 1020.5 - 0.0
30/12:00pm 16.4 9.7 1.3 36 6.6 NW 26 39 14 21 1021.0 1021.1 0.0
30/11:49am 16.1 9.0 1.4 37 6.5 NW 28 48 15 26 1021.2 - 0.0
30/11:30am 15.9 10.7 3.7 44 5.6 NNW 20 32 11 17 1021.5 - 0.0
30/11:00am 14.2 9.3 4.2 51 4.6 NNW 19 28 10 15 1022.3 - 0.0
30/10:30am 13.8 8.7 3.9 51 4.5 NNW 20 28 11 15 1023.0 - 0.0
30/10:00am 13.2 7.8 4.4 55 4.0 NNW 22 30 12 16 1023.7 - 0.0
30/09:30am 12.1 6.6 4.1 58 3.6 NW 22 30 12 16 1024.2 - 0.0
30/09:00am 10.7 5.5 3.7 62 3.1 NW 20 28 11 15 1024.5 1024.5 0.0
30/08:30am 10.4 5.6 4.8 68 2.5 NW 19 22 10 12 1024.6 - 0.0
30/08:00am 8.8 5.4 4.2 73 2.0 N 11 15 6 8 1025.0 - 0.0
30/07:30am 7.9 3.3 3.9 76 1.7 NW 17 20 9 11 1025.0 - 0.0
30/07:00am 7.3 3.1 3.9 79 1.5 NW 15 19 8 10 1024.9 - 0.0
30/06:30am 6.7 2.6 4.2 84 1.1 NW 15 19 8 10 1024.8 - 0.0
30/06:00am 5.7 3.1 4.0 89 0.7 NW 7 11 4 6 1025.0 1025.1 0.0
30/05:30am 5.7 2.7 4.2 90 0.6 NW 9 11 5 6 1025.0 - 0.0
30/05:00am 7.1 3.1 5.1 87 0.9 NW 15 19 8 10 1025.2 - 0.0
30/04:30am 7.4 3.1 5.4 87 0.9 NW 17 20 9 11 1025.5 - 0.0
30/04:00am 7.2 3.3 5.3 88 0.8 NW 15 17 8 9 1025.6 - 0.0
30/03:30am 7.6 3.4 5.7 88 0.9 NW 17 20 9 11 1025.8 - 0.0
30/03:00am 6.7 3.5 5.3 91 0.6 NW 11 13 6 7 1026.1 1026.2 0.0
30/02:30am 7.8 4.1 6.1 89 0.8 WNW 15 17 8 9 1026.5 - 0.0
30/02:00am 7.2 3.8 6.0 92 0.5 NW 13 15 7 8 1026.8 - 0.0
30/01:30am 7.1 3.7 5.7 91 0.6 WNW 13 15 7 8 1027.1 - 0.0
30/01:00am 6.5 4.1 5.3 92 0.5 NNW 7 9 4 5 1027.3 - 0.0
30/12:30am 7.5 4.5 5.8 89 0.8 WNW 11 13 6 7 1028.2 - 0.0
30/12:00am 7.1 4.5 6.0 93 0.5 W 9 11 5 6 1028.6 1028.7 0.0
 
Date/Time
EST
Temp
°C
App
Temp
°C
Dew
Point
Rel
Hum
%
Delta-T
°C
Wind Press
QNH
hPa
Press
MSL
hPa
Rain
since 9 am
mm
Dir
 
Spd
km/h
Gust
km/h
Spd
kts
Gust
kts
29/11:30pm 7.7 5.6 6.5 92 0.6 NW 7 11 4 6 1028.8 - 0.0
29/11:00pm 7.8 4.9 6.6 92 0.6 NW 11 13 6 7 1028.8 - 0.0
29/10:30pm 7.6 4.4 6.9 95 0.3 NW 13 15 7 8 1028.9 - 0.0
29/10:00pm 7.6 4.7 6.7 94 0.4 NNW 11 13 6 7 1029.2 - 0.0
29/09:30pm 7.7 4.9 7.1 96 0.3 NW 11 13 6 7 1029.6 - 0.0
29/09:00pm 7.4 5.9 7.0 97 0.2 W 4 13 2 7 1029.8 1029.9 0.0
29/08:30pm 6.5 4.5 6.1 97 0.2 WNW 6 9 3 5 1029.9 - 0.0
29/08:00pm 5.9 3.9 4.2 89 0.7 W 4 11 2 6 1029.6 - 0.0
29/07:30pm 7.4 4.9 6.5 94 0.4 W 9 11 5 6 1029.5 - 0.0
29/07:00pm 5.9 3.4 4.7 92 0.5 W 7 11 4 6 1029.8 - 0.0
29/06:30pm 6.7 5.6 5.2 90 0.7 CALM 0 0 0 0 1029.6 - 0.0
29/06:00pm 7.7 6.6 5.2 84 1.1 CALM 0 0 0 0 1029.2 1029.3 0.0
29/05:30pm 11.3 10.4 6.2 71 2.4 CALM 0 6 0 3 1029.2 - 0.0
29/05:00pm 12.0 9.4 6.3 68 2.7 NE 9 9 5 5 1029.1 - 0.0
29/04:30pm 12.7 9.0 6.3 65 3.1 NE 15 17 8 9 1029.0 - 0.0
29/04:00pm 14.1 9.4 6.2 59 3.8 NE 20 24 11 13 1029.0 - 0.0

Other Formats:

Comma delimited format used in spreadsheet applications
http://www.bom.gov.au/fwo/IDN60801/IDN60801.94750.axf

JavaScript Object Notation format (JSON) in row-major order
http://www.bom.gov.au/fwo/IDN60801/IDN60801.94750.json